sensor_id;sensor_type;location;lat;lon;timestamp;pressure;altitude;pressure_sealevel;temperature;humidity
46303;BME280;32029;51.358;5.628;2023-03-01T00:02:25;102824.13;;;2.12;61.79
46303;BME280;32029;51.358;5.628;2023-03-01T00:04:52;102831.47;;;2.10;61.66
46303;BME280;32029;51.358;5.628;2023-03-01T00:07:19;102829.72;;;2.09;61.89
46303;BME280;32029;51.358;5.628;2023-03-01T00:09:45;102836.09;;;2.08;61.99
46303;BME280;32029;51.358;5.628;2023-03-01T00:12:12;102820.00;;;2.05;62.11
46303;BME280;32029;51.358;5.628;2023-03-01T00:14:39;102841.41;;;2.09;62.29
46303;BME280;32029;51.358;5.628;2023-03-01T00:17:06;102827.81;;;2.11;62.23
46303;BME280;32029;51.358;5.628;2023-03-01T00:19:33;102824.13;;;2.12;62.30
46303;BME280;32029;51.358;5.628;2023-03-01T00:22:00;102832.31;;;2.10;62.07
46303;BME280;32029;51.358;5.628;2023-03-01T00:24:27;102820.63;;;2.10;62.01
46303;BME280;32029;51.358;5.628;2023-03-01T00:26:54;102828.75;;;2.10;62.17
46303;BME280;32029;51.358;5.628;2023-03-01T00:29:24;102793.50;;;1.94;62.17
46303;BME280;32029;51.358;5.628;2023-03-01T00:31:51;102823.50;;;2.07;62.25
46303;BME280;32029;51.358;5.628;2023-03-01T00:34:16;102796.56;;;1.88;62.30
46303;BME280;32029;51.358;5.628;2023-03-01T00:36:43;102829.88;;;2.06;62.40
46303;BME280;32029;51.358;5.628;2023-03-01T00:39:12;102822.72;;;2.05;62.22
46303;BME280;32029;51.358;5.628;2023-03-01T00:41:40;102819.19;;;2.03;62.53
46303;BME280;32029;51.358;5.628;2023-03-01T00:44:06;102816.59;;;2.01;62.22
46303;BME280;32029;51.358;5.628;2023-03-01T00:46:33;102797.28;;;1.91;62.40
46303;BME280;32029;51.358;5.628;2023-03-01T00:49:00;102776.50;;;1.75;62.43
46303;BME280;32029;51.358;5.628;2023-03-01T00:51:28;102813.44;;;1.93;62.61
46303;BME280;32029;51.358;5.628;2023-03-01T00:53:56;102807.19;;;1.91;62.50
46303;BME280;32029;51.358;5.628;2023-03-01T00:56:23;102779.38;;;1.71;62.53
46303;BME280;32029;51.358;5.628;2023-03-01T00:58:50;102802.03;;;1.86;62.72
46303;BME280;32029;51.358;5.628;2023-03-01T01:01:19;102790.84;;;1.77;62.73
46303;BME280;32029;51.358;5.628;2023-03-01T01:03:53;102798.72;;;1.81;62.92
46303;BME280;32029;51.358;5.628;2023-03-01T01:06:23;102800.63;;;1.79;62.75
46303;BME280;32029;51.358;5.628;2023-03-01T01:08:51;102798.88;;;1.78;62.85
46303;BME280;32029;51.358;5.628;2023-03-01T01:11:19;102795.31;;;1.78;63.01
46303;BME280;32029;51.358;5.628;2023-03-01T01:13:47;102797.22;;;1.76;62.68
46303;BME280;32029;51.358;5.628;2023-03-01T01:16:15;102760.38;;;1.56;62.84
46303;BME280;32029;51.358;5.628;2023-03-01T01:18:43;102790.13;;;1.73;62.95
46303;BME280;32029;51.358;5.628;2023-03-01T01:21:11;102798.31;;;1.71;62.79
46303;BME280;32029;51.358;5.628;2023-03-01T01:23:39;102758.78;;;1.52;62.96
46303;BME280;32029;51.358;5.628;2023-03-01T01:26:09;102779.56;;;1.68;62.91
46303;BME280;32029;51.358;5.628;2023-03-01T01:28:37;102772.47;;;1.66;63.12
46303;BME280;32029;51.358;5.628;2023-03-01T01:31:04;102761.03;;;1.61;63.12
46303;BME280;32029;51.358;5.628;2023-03-01T01:33:32;102760.78;;;1.65;63.01
46303;BME280;32029;51.358;5.628;2023-03-01T01:35:59;102680.31;;;1.18;63.13
46303;BME280;32029;51.358;5.628;2023-03-01T01:38:25;102754.66;;;1.62;62.95
46303;BME280;32029;51.358;5.628;2023-03-01T01:40:52;102757.44;;;1.60;63.19
46303;BME280;32029;51.358;5.628;2023-03-01T01:45:47;102757.50;;;1.59;62.96
46303;BME280;32029;51.358;5.628;2023-03-01T01:48:18;102749.56;;;1.56;63.25
46303;BME280;32029;51.358;5.628;2023-03-01T01:50:54;102743.38;;;1.54;63.15
46303;BME280;32029;51.358;5.628;2023-03-01T01:53:21;102714.75;;;1.32;62.92
46303;BME280;32029;51.358;5.628;2023-03-01T01:55:52;102746.22;;;1.51;63.20
46303;BME280;32029;51.358;5.628;2023-03-01T01:58:21;102754.50;;;1.47;63.21
46303;BME280;32029;51.358;5.628;2023-03-01T02:00:47;102744.66;;;1.46;63.36
46303;BME280;32029;51.358;5.628;2023-03-01T02:03:19;102745.78;;;1.42;63.43
46303;BME280;32029;51.358;5.628;2023-03-01T02:08:21;102734.31;;;1.37;63.50
46303;BME280;32029;51.358;5.628;2023-03-01T02:10:50;102712.38;;;1.26;63.77
46303;BME280;32029;51.358;5.628;2023-03-01T02:13:18;102725.41;;;1.35;63.61
46303;BME280;32029;51.358;5.628;2023-03-01T02:15:45;102723.03;;;1.29;63.74
46303;BME280;32029;51.358;5.628;2023-03-01T02:18:14;102704.91;;;1.14;64.06
46303;BME280;32029;51.358;5.628;2023-03-01T02:23:24;102711.25;;;1.30;64.12
46303;BME280;32029;51.358;5.628;2023-03-01T02:25:57;102714.13;;;1.27;64.16
46303;BME280;32029;51.358;5.628;2023-03-01T02:28:32;102720.34;;;1.29;64.20
46303;BME280;32029;51.358;5.628;2023-03-01T02:31:01;102721.28;;;1.28;64.24
46303;BME280;32029;51.358;5.628;2023-03-01T02:33:47;102712.63;;;1.21;64.09
46303;BME280;32029;51.358;5.628;2023-03-01T02:36:28;102718.91;;;1.22;63.92
46303;BME280;32029;51.358;5.628;2023-03-01T02:38:58;102681.69;;;0.92;64.20
46303;BME280;32029;51.358;5.628;2023-03-01T02:41:30;102718.19;;;1.18;64.27
46303;BME280;32029;51.358;5.628;2023-03-01T02:43:57;102708.72;;;1.10;64.37
46303;BME280;32029;51.358;5.628;2023-03-01T02:46:25;102714.78;;;1.15;64.78
46303;BME280;32029;51.358;5.628;2023-03-01T02:48:54;102709.25;;;1.16;64.54
46303;BME280;32029;51.358;5.628;2023-03-01T02:51:38;102718.25;;;1.17;64.59
46303;BME280;32029;51.358;5.628;2023-03-01T02:54:25;102720.19;;;1.15;64.80
46303;BME280;32029;51.358;5.628;2023-03-01T02:56:55;102720.31;;;1.12;64.90
46303;BME280;32029;51.358;5.628;2023-03-01T02:59:24;102714.16;;;1.10;64.93
46303;BME280;32029;51.358;5.628;2023-03-01T03:01:52;102707.94;;;1.08;64.89
46303;BME280;32029;51.358;5.628;2023-03-01T03:04:19;102716.03;;;1.08;64.95
46303;BME280;32029;51.358;5.628;2023-03-01T03:06:50;102711.66;;;1.05;64.74
46303;BME280;32029;51.358;5.628;2023-03-01T03:09:18;102724.31;;;1.05;64.90
46303;BME280;32029;51.358;5.628;2023-03-01T03:11:45;102716.38;;;1.02;64.86
46303;BME280;32029;51.358;5.628;2023-03-01T03:14:15;102709.19;;;1.01;64.78
46303;BME280;32029;51.358;5.628;2023-03-01T03:16:47;102708.41;;;0.98;64.91
46303;BME280;32029;51.358;5.628;2023-03-01T03:19:14;102718.41;;;0.96;65.16
46303;BME280;32029;51.358;5.628;2023-03-01T03:21:41;102720.25;;;0.96;64.99
46303;BME280;32029;51.358;5.628;2023-03-01T03:24:08;102683.75;;;0.70;65.26
46303;BME280;32029;51.358;5.628;2023-03-01T03:26:34;102712.22;;;0.94;64.96
46303;BME280;32029;51.358;5.628;2023-03-01T03:29:01;102703.66;;;0.86;65.12
46303;BME280;32029;51.358;5.628;2023-03-01T03:31:27;102704.28;;;0.91;65.24
46303;BME280;32029;51.358;5.628;2023-03-01T03:33:53;102710.66;;;0.90;65.28
46303;BME280;32029;51.358;5.628;2023-03-01T03:36:22;102674.94;;;0.66;65.56
46303;BME280;32029;51.358;5.628;2023-03-01T03:38:49;102718.03;;;0.87;65.60
46303;BME280;32029;51.358;5.628;2023-03-01T03:41:17;102710.78;;;0.87;65.73
46303;BME280;32029;51.358;5.628;2023-03-01T03:43:43;102709.06;;;0.86;65.56
46303;BME280;32029;51.358;5.628;2023-03-01T03:46:10;102712.69;;;0.85;65.67
46303;BME280;32029;51.358;5.628;2023-03-01T03:48:42;102709.13;;;0.85;65.82
46303;BME280;32029;51.358;5.628;2023-03-01T03:51:11;102704.75;;;0.82;65.88
46303;BME280;32029;51.358;5.628;2023-03-01T03:53:38;102704.75;;;0.82;65.78
46303;BME280;32029;51.358;5.628;2023-03-01T03:56:06;102703.06;;;0.80;65.95
46303;BME280;32029;51.358;5.628;2023-03-01T03:58:32;102695.94;;;0.79;65.64
46303;BME280;32029;51.358;5.628;2023-03-01T04:00:59;102682.16;;;0.66;65.82
46303;BME280;32029;51.358;5.628;2023-03-01T04:03:28;102696.13;;;0.74;65.73
46303;BME280;32029;51.358;5.628;2023-03-01T04:05:57;102694.41;;;0.73;65.83
46303;BME280;32029;51.358;5.628;2023-03-01T04:08:25;102689.13;;;0.70;65.90
46303;BME280;32029;51.358;5.628;2023-03-01T04:10:57;102689.22;;;0.68;65.96
46303;BME280;32029;51.358;5.628;2023-03-01T04:13:23;102691.94;;;0.68;66.14
46303;BME280;32029;51.358;5.628;2023-03-01T04:15:52;102685.66;;;0.68;65.99
46303;BME280;32029;51.358;5.628;2023-03-01T04:18:21;102671.66;;;0.60;65.99
46303;BME280;32029;51.358;5.628;2023-03-01T04:20:48;102679.44;;;0.66;66.39
46303;BME280;32029;51.358;5.628;2023-03-01T04:23:17;102678.53;;;0.67;66.53
46303;BME280;32029;51.358;5.628;2023-03-01T04:25:49;102673.13;;;0.67;66.22
46303;BME280;32029;51.358;5.628;2023-03-01T04:30:48;102674.03;;;0.66;66.61
46303;BME280;32029;51.358;5.628;2023-03-01T04:33:14;102652.44;;;0.48;66.48
46303;BME280;32029;51.358;5.628;2023-03-01T04:35:41;102670.56;;;0.64;66.97
46303;BME280;32029;51.358;5.628;2023-03-01T04:38:08;102667.84;;;0.64;66.91
46303;BME280;32029;51.358;5.628;2023-03-01T04:40:34;102658.88;;;0.63;66.95
46303;BME280;32029;51.358;5.628;2023-03-01T05:37:23;102629.84;;;0.49;67.10
46303;BME280;32029;51.358;5.628;2023-03-01T05:39:49;102629.94;;;0.48;67.14
46303;BME280;32029;51.358;5.628;2023-03-01T05:42:16;102634.47;;;0.47;66.69
46303;BME280;32029;51.358;5.628;2023-03-01T05:44:43;102596.78;;;0.27;66.83
46303;BME280;32029;51.358;5.628;2023-03-01T05:47:10;102631.13;;;0.42;66.47
46303;BME280;32029;51.358;5.628;2023-03-01T05:49:37;102626.75;;;0.40;66.86
46303;BME280;32029;51.358;5.628;2023-03-01T05:52:03;102582.78;;;0.19;66.61
46303;BME280;32029;51.358;5.628;2023-03-01T05:54:30;102628.88;;;0.33;66.51
46303;BME280;32029;51.358;5.628;2023-03-01T05:56:57;102618.22;;;0.30;66.55
46303;BME280;32029;51.358;5.628;2023-03-01T05:59:24;102620.22;;;0.27;66.94
46303;BME280;32029;51.358;5.628;2023-03-01T06:01:50;102597.63;;;0.10;66.54
46303;BME280;32029;51.358;5.628;2023-03-01T06:04:17;102606.31;;;0.17;66.50
46303;BME280;32029;51.358;5.628;2023-03-01T06:06:44;102604.06;;;0.08;66.73
46303;BME280;32029;51.358;5.628;2023-03-01T06:09:10;102620.78;;;0.16;66.83
46303;BME280;32029;51.358;5.628;2023-03-01T06:11:37;102626.31;;;0.13;66.68
46303;BME280;32029;51.358;5.628;2023-03-01T06:14:05;102597.63;;;-0.07;66.66
46303;BME280;32029;51.358;5.628;2023-03-01T06:16:32;102609.13;;;-0.04;66.81
46303;BME280;32029;51.358;5.628;2023-03-01T06:18:59;102627.66;;;0.04;67.07
46303;BME280;32029;51.358;5.628;2023-03-01T06:21:26;102604.13;;;-0.11;67.08
46303;BME280;32029;51.358;5.628;2023-03-01T06:23:53;102628.66;;;0.02;67.23
46303;BME280;32029;51.358;5.628;2023-03-01T06:26:20;102613.22;;;-0.14;67.68
46303;BME280;32029;51.358;5.628;2023-03-01T06:28:47;102609.56;;;-0.13;67.70
46303;BME280;32029;51.358;5.628;2023-03-01T06:31:13;102632.25;;;0.02;67.71
46303;BME280;32029;51.358;5.628;2023-03-01T06:33:40;102633.19;;;0.01;67.37
46303;BME280;32029;51.358;5.628;2023-03-01T06:36:08;102624.38;;;-0.03;67.64
46303;BME280;32029;51.358;5.628;2023-03-01T06:38:35;102635.91;;;0.01;67.88
46303;BME280;32029;51.358;5.628;2023-03-01T06:41:02;102632.31;;;0.01;67.85
46303;BME280;32029;51.358;5.628;2023-03-01T06:43:28;102636.75;;;0.02;67.76
46303;BME280;32029;51.358;5.628;2023-03-01T06:45:55;102631.38;;;0.02;67.89
46303;BME280;32029;51.358;5.628;2023-03-01T06:48:21;102628.66;;;0.02;68.21
46303;BME280;32029;51.358;5.628;2023-03-01T06:50:47;102611.97;;;-0.07;68.26
46303;BME280;32029;51.358;5.628;2023-03-01T06:53:14;102610.66;;;0.02;68.27
46303;BME280;32029;51.358;5.628;2023-03-01T06:55:41;102626.38;;;0.11;68.21
46303;BME280;32029;51.358;5.628;2023-03-01T06:58:08;102599.13;;;-0.02;68.20
46303;BME280;32029;51.358;5.628;2023-03-01T07:00:35;102618.94;;;0.16;68.43
46303;BME280;32029;51.358;5.628;2023-03-01T07:03:02;102595.25;;;0.04;68.53
46303;BME280;32029;51.358;5.628;2023-03-01T07:05:30;102618.47;;;0.26;68.48
46303;BME280;32029;51.358;5.628;2023-03-01T07:07:57;102620.16;;;0.28;68.41
46303;BME280;32029;51.358;5.628;2023-03-01T07:10:24;102602.66;;;0.18;68.55
46303;BME280;32029;51.358;5.628;2023-03-01T07:12:54;102629.69;;;0.35;68.54
46303;BME280;32029;51.358;5.628;2023-03-01T07:15:21;102610.47;;;0.24;68.60
46303;BME280;32029;51.358;5.628;2023-03-01T07:17:48;102582.00;;;0.17;68.62
46303;BME280;32029;51.358;5.628;2023-03-01T07:20:18;102632.56;;;0.49;68.69
46303;BME280;32029;51.358;5.628;2023-03-01T07:22:45;102633.28;;;0.53;68.75
46303;BME280;32029;51.358;5.628;2023-03-01T07:25:12;102613.00;;;0.44;68.70
46303;BME280;32029;51.358;5.628;2023-03-01T07:27:39;102618.09;;;0.51;68.79
46303;BME280;32029;51.358;5.628;2023-03-01T07:30:07;102617.00;;;0.55;69.05
46303;BME280;32029;51.358;5.628;2023-03-01T07:32:33;102627.19;;;0.67;69.00
46303;BME280;32029;51.358;5.628;2023-03-01T07:35:00;102618.09;;;0.68;69.16
46303;BME280;32029;51.358;5.628;2023-03-01T07:37:27;102640.41;;;0.89;69.21
46303;BME280;32029;51.358;5.628;2023-03-01T07:39:53;102648.13;;;0.96;69.37
46303;BME280;32029;51.358;5.628;2023-03-01T07:42:20;102656.72;;;1.05;69.41
46303;BME280;32029;51.358;5.628;2023-03-01T07:44:47;102648.19;;;1.12;69.54
46303;BME280;32029;51.358;5.628;2023-03-01T07:47:14;102600.84;;;0.88;69.46
46303;BME280;32029;51.358;5.628;2023-03-01T07:49:40;102590.91;;;0.88;69.66
46303;BME280;32029;51.358;5.628;2023-03-01T07:52:06;102657.00;;;1.33;69.34
46303;BME280;32029;51.358;5.628;2023-03-01T07:54:32;102646.78;;;1.38;69.27
46303;BME280;32029;51.358;5.628;2023-03-01T07:56:59;102650.03;;;1.45;69.17
46303;BME280;32029;51.358;5.628;2023-03-01T07:59:25;102627.16;;;1.35;69.18
46303;BME280;32029;51.358;5.628;2023-03-01T08:01:56;102655.66;;;1.58;69.30
46303;BME280;32029;51.358;5.628;2023-03-01T08:04:22;102649.00;;;1.63;69.27
46303;BME280;32029;51.358;5.628;2023-03-01T08:06:51;102647.66;;;1.72;69.27
46303;BME280;32029;51.358;5.628;2023-03-01T08:09:17;102649.03;;;1.79;68.64
46303;BME280;32029;51.358;5.628;2023-03-01T08:11:43;102639.59;;;1.86;69.02
46303;BME280;32029;51.358;5.628;2023-03-01T08:14:09;102631.41;;;1.88;68.61
46303;BME280;32029;51.358;5.628;2023-03-01T08:16:37;102633.31;;;2.02;68.28
46303;BME280;32029;51.358;5.628;2023-03-01T08:19:10;102631.91;;;2.10;68.27
46303;BME280;32029;51.358;5.628;2023-03-01T08:21:37;102623.72;;;2.12;68.09
46303;BME280;32029;51.358;5.628;2023-03-01T08:24:04;102631.88;;;2.26;68.06
46303;BME280;32029;51.358;5.628;2023-03-01T08:26:32;102630.50;;;2.35;67.72
46303;BME280;32029;51.358;5.628;2023-03-01T08:29:00;102595.91;;;2.24;67.37
46303;BME280;32029;51.358;5.628;2023-03-01T08:31:31;102618.75;;;2.50;67.35
46303;BME280;32029;51.358;5.628;2023-03-01T08:34:01;102621.00;;;2.58;67.15
46303;BME280;32029;51.358;5.628;2023-03-01T08:36:30;102618.72;;;2.66;67.02
46303;BME280;32029;51.358;5.628;2023-03-01T08:38:56;102627.25;;;2.74;66.67
46303;BME280;32029;51.358;5.628;2023-03-01T08:41:23;102582.78;;;2.62;66.85
46303;BME280;32029;51.358;5.628;2023-03-01T08:43:49;102613.69;;;2.88;66.20
46303;BME280;32029;51.358;5.628;2023-03-01T08:46:15;102581.75;;;2.79;66.14
46303;BME280;32029;51.358;5.628;2023-03-01T08:48:42;102571.88;;;2.78;66.26
46303;BME280;32029;51.358;5.628;2023-03-01T08:51:19;102616.78;;;3.12;65.96
46303;BME280;32029;51.358;5.628;2023-03-01T08:53:46;102610.88;;;3.20;65.39
46303;BME280;32029;51.358;5.628;2023-03-01T11:00:21;102436.19;;;6.13;54.65
46303;BME280;32029;51.358;5.628;2023-03-01T11:02:50;102478.38;;;6.43;54.33
46303;BME280;32029;51.358;5.628;2023-03-01T11:05:23;102482.88;;;6.55;54.50
46303;BME280;32029;51.358;5.628;2023-03-01T11:07:56;102485.63;;;6.66;54.36
46303;BME280;32029;51.358;5.628;2023-03-01T11:10:26;102485.03;;;6.74;53.81
46303;BME280;32029;51.358;5.628;2023-03-01T11:12:53;102488.13;;;6.80;53.04
46303;BME280;32029;51.358;5.628;2023-03-01T11:15:31;102473.25;;;6.84;53.18
46303;BME280;32029;51.358;5.628;2023-03-01T11:17:57;102464.81;;;6.76;53.44
46303;BME280;32029;51.358;5.628;2023-03-01T11:20:33;102473.03;;;6.99;53.14
46303;BME280;32029;51.358;5.628;2023-03-01T11:23:08;102481.69;;;7.04;51.98
46303;BME280;32029;51.358;5.628;2023-03-01T11:25:38;102468.78;;;7.06;52.37
46303;BME280;32029;51.358;5.628;2023-03-01T11:28:13;102469.28;;;7.11;52.32
46303;BME280;32029;51.358;5.628;2023-03-01T11:30:43;102459.72;;;7.17;52.16
46303;BME280;32029;51.358;5.628;2023-03-01T11:33:31;102456.25;;;7.26;52.06
46303;BME280;32029;51.358;5.628;2023-03-01T11:39:05;102438.25;;;7.23;51.69
46303;BME280;32029;51.358;5.628;2023-03-01T11:41:40;102462.91;;;7.44;50.97
46303;BME280;32029;51.358;5.628;2023-03-01T11:44:18;102453.34;;;7.50;50.68
46303;BME280;32029;51.358;5.628;2023-03-01T11:47:10;102460.06;;;7.57;50.83
46303;BME280;32029;51.358;5.628;2023-03-01T11:49:48;102456.06;;;7.61;50.36
46303;BME280;32029;51.358;5.628;2023-03-01T11:55:19;102449.81;;;7.70;50.76
46303;BME280;32029;51.358;5.628;2023-03-01T11:58:34;102444.56;;;7.78;49.88
46303;BME280;32029;51.358;5.628;2023-03-01T12:01:22;102442.69;;;7.79;50.09
46303;BME280;32029;51.358;5.628;2023-03-01T12:06:50;102447.66;;;7.85;49.33
46303;BME280;32029;51.358;5.628;2023-03-01T12:09:38;102440.19;;;7.87;49.77
46303;BME280;32029;51.358;5.628;2023-03-01T12:12:18;102433.59;;;7.90;49.84
46303;BME280;32029;51.358;5.628;2023-03-01T12:20:35;102432.72;;;7.89;49.55
46303;BME280;32029;51.358;5.628;2023-03-01T12:23:42;102428.28;;;7.88;49.52
46303;BME280;32029;51.358;5.628;2023-03-01T12:26:35;102433.59;;;7.90;50.04
46303;BME280;32029;51.358;5.628;2023-03-01T12:29:26;102431.56;;;7.92;50.26
46303;BME280;32029;51.358;5.628;2023-03-01T12:32:12;102416.06;;;7.92;50.15
46303;BME280;32029;51.358;5.628;2023-03-01T12:35:13;102416.69;;;7.96;50.21
46303;BME280;32029;51.358;5.628;2023-03-01T12:40:45;102399.72;;;8.02;49.83
46303;BME280;32029;51.358;5.628;2023-03-01T12:51:15;102383.72;;;8.18;49.15
46303;BME280;32029;51.358;5.628;2023-03-01T12:53:47;102387.06;;;8.22;48.80
46303;BME280;32029;51.358;5.628;2023-03-01T12:56:20;102381.34;;;8.25;49.31
46303;BME280;32029;51.358;5.628;2023-03-01T13:04:31;102362.44;;;8.22;48.43
46303;BME280;32029;51.358;5.628;2023-03-01T13:07:48;102350.13;;;8.27;47.93
46303;BME280;32029;51.358;5.628;2023-03-01T13:10:21;102342.03;;;8.26;47.97
46303;BME280;32029;51.358;5.628;2023-03-01T13:20:55;102316.09;;;8.20;48.80
46303;BME280;32029;51.358;5.628;2023-03-01T13:23:26;102331.91;;;8.38;47.99
46303;BME280;32029;51.358;5.628;2023-03-01T13:33:52;102298.13;;;8.48;48.71
46303;BME280;32029;51.358;5.628;2023-03-01T13:44:25;102308.00;;;8.70;48.44
46303;BME280;32029;51.358;5.628;2023-03-01T13:52:40;102287.25;;;8.77;48.06
46303;BME280;32029;51.358;5.628;2023-03-01T13:57:46;102283.53;;;8.78;47.79
46303;BME280;32029;51.358;5.628;2023-03-01T14:00:33;102281.41;;;8.82;48.04
46303;BME280;32029;51.358;5.628;2023-03-01T14:03:15;102276.50;;;8.86;47.84
46303;BME280;32029;51.358;5.628;2023-03-01T14:05:57;102268.56;;;8.92;48.13
46303;BME280;32029;51.358;5.628;2023-03-01T14:08:26;102258.22;;;8.96;48.25
46303;BME280;32029;51.358;5.628;2023-03-01T14:11:00;102254.19;;;9.00;48.31
46303;BME280;32029;51.358;5.628;2023-03-01T14:13:44;102253.91;;;9.03;47.49
46303;BME280;32029;51.358;5.628;2023-03-01T14:19:16;102261.41;;;9.11;46.86
46303;BME280;32029;51.358;5.628;2023-03-01T14:21:44;102249.00;;;9.06;46.75
46303;BME280;32029;51.358;5.628;2023-03-01T14:24:19;102222.78;;;8.94;47.26
46303;BME280;32029;51.358;5.628;2023-03-01T14:26:49;102253.19;;;9.11;47.32
46303;BME280;32029;51.358;5.628;2023-03-01T14:29:37;102252.03;;;9.13;47.40
46303;BME280;32029;51.358;5.628;2023-03-01T14:34:44;102251.88;;;9.15;46.18
46303;BME280;32029;51.358;5.628;2023-03-01T14:39:45;102234.88;;;9.11;45.68
46303;BME280;32029;51.358;5.628;2023-03-01T14:42:13;102241.66;;;9.17;46.07
46303;BME280;32029;51.358;5.628;2023-03-01T14:44:43;102244.25;;;9.18;45.72
46303;BME280;32029;51.358;5.628;2023-03-01T14:47:20;102235.00;;;9.19;46.05
46303;BME280;32029;51.358;5.628;2023-03-01T14:50:16;102239.34;;;9.22;45.76
46303;BME280;32029;51.358;5.628;2023-03-01T14:52:42;102230.28;;;9.21;45.89
46303;BME280;32029;51.358;5.628;2023-03-01T14:55:20;102232.28;;;9.19;46.26
46303;BME280;32029;51.358;5.628;2023-03-01T14:57:49;102219.75;;;9.17;45.28
46303;BME280;32029;51.358;5.628;2023-03-01T15:21:09;102201.56;;;9.45;46.77
46303;BME280;32029;51.358;5.628;2023-03-01T15:31:22;102197.53;;;9.49;46.37
46303;BME280;32029;51.358;5.628;2023-03-01T16:25:54;102120.00;;;9.29;46.46
46303;BME280;32029;51.358;5.628;2023-03-01T16:28:24;102163.91;;;9.56;46.54
46303;BME280;32029;51.358;5.628;2023-03-01T16:30:52;102157.41;;;9.57;46.56
46303;BME280;32029;51.358;5.628;2023-03-01T16:33:18;102147.19;;;9.50;46.93
46303;BME280;32029;51.358;5.628;2023-03-01T16:35:45;102154.22;;;9.62;46.39
46303;BME280;32029;51.358;5.628;2023-03-01T16:38:12;102152.94;;;9.56;46.75
46303;BME280;32029;51.358;5.628;2023-03-01T16:40:38;102155.22;;;9.61;46.56
46303;BME280;32029;51.358;5.628;2023-03-01T16:43:05;102120.34;;;9.44;46.67
46303;BME280;32029;51.358;5.628;2023-03-01T16:45:35;102138.50;;;9.54;46.72
46303;BME280;32029;51.358;5.628;2023-03-01T16:48:03;102154.22;;;9.62;46.57
46303;BME280;32029;51.358;5.628;2023-03-01T16:50:29;102145.47;;;9.49;46.38
46303;BME280;32029;51.358;5.628;2023-03-01T16:52:56;102163.72;;;9.58;46.14
46303;BME280;32029;51.358;5.628;2023-03-01T16:55:23;102134.66;;;9.38;46.16
46303;BME280;32029;51.358;5.628;2023-03-01T16:57:49;102123.00;;;9.26;46.46
46303;BME280;32029;51.358;5.628;2023-03-01T17:00:17;102169.38;;;9.47;46.15
46303;BME280;32029;51.358;5.628;2023-03-01T17:02:44;102174.75;;;9.39;46.15
46303;BME280;32029;51.358;5.628;2023-03-01T17:05:11;102165.13;;;9.25;46.01
46303;BME280;32029;51.358;5.628;2023-03-01T17:07:38;102153.16;;;9.06;46.46
46303;BME280;32029;51.358;5.628;2023-03-01T17:10:07;102173.34;;;9.05;46.56
46303;BME280;32029;51.358;5.628;2023-03-01T17:12:34;102163.69;;;8.92;46.88
46303;BME280;32029;51.358;5.628;2023-03-01T17:15:02;102174.63;;;8.92;46.63
46303;BME280;32029;51.358;5.628;2023-03-01T17:17:29;102171.00;;;8.81;46.74
46303;BME280;32029;51.358;5.628;2023-03-01T17:19:56;102179.22;;;8.72;47.13
46303;BME280;32029;51.358;5.628;2023-03-01T17:22:23;102178.34;;;8.62;47.36
46303;BME280;32029;51.358;5.628;2023-03-01T17:24:49;102178.50;;;8.50;47.53
46303;BME280;32029;51.358;5.628;2023-03-01T17:27:16;102174.88;;;8.40;47.63
46303;BME280;32029;51.358;5.628;2023-03-01T17:29:43;102173.94;;;8.30;47.79
46303;BME280;32029;51.358;5.628;2023-03-01T17:32:10;102174.94;;;8.19;47.70
46303;BME280;32029;51.358;5.628;2023-03-01T17:34:37;102150.19;;;7.90;47.76
46303;BME280;32029;51.358;5.628;2023-03-01T17:37:03;102180.72;;;7.95;48.20
46303;BME280;32029;51.358;5.628;2023-03-01T17:39:30;102189.88;;;7.84;48.72
46303;BME280;32029;51.358;5.628;2023-03-01T17:42:03;102186.97;;;7.76;48.26
46303;BME280;32029;51.358;5.628;2023-03-01T17:44:30;102193.38;;;7.66;48.60
46303;BME280;32029;51.358;5.628;2023-03-01T17:46:57;102188.72;;;7.56;48.98
46303;BME280;32029;51.358;5.628;2023-03-01T17:49:24;102194.28;;;7.45;49.39
46303;BME280;32029;51.358;5.628;2023-03-01T17:51:51;102076.72;;;6.63;49.56
46303;BME280;32029;51.358;5.628;2023-03-01T17:54:17;102197.44;;;7.29;49.47
46303;BME280;32029;51.358;5.628;2023-03-01T17:56:44;102197.25;;;7.21;49.56
46303;BME280;32029;51.358;5.628;2023-03-01T17:59:11;102202.50;;;7.13;50.13
46303;BME280;32029;51.358;5.628;2023-03-01T18:01:40;102145.00;;;6.73;50.37
46303;BME280;32029;51.358;5.628;2023-03-01T18:04:08;102185.75;;;6.85;50.11
46303;BME280;32029;51.358;5.628;2023-03-01T18:06:35;102178.09;;;6.79;50.34
46303;BME280;32029;51.358;5.628;2023-03-01T18:09:02;102199.28;;;6.87;50.46
46303;BME280;32029;51.358;5.628;2023-03-01T18:11:29;102185.94;;;6.73;50.65
46303;BME280;32029;51.358;5.628;2023-03-01T18:13:55;102181.25;;;6.63;50.56
46303;BME280;32029;51.358;5.628;2023-03-01T18:16:22;102204.16;;;6.72;50.60
46303;BME280;32029;51.358;5.628;2023-03-01T18:18:53;102208.25;;;6.67;50.97
46303;BME280;32029;51.358;5.628;2023-03-01T18:21:20;102210.75;;;6.58;50.77
46303;BME280;32029;51.358;5.628;2023-03-01T18:23:48;102219.31;;;6.54;50.78
46303;BME280;32029;51.358;5.628;2023-03-01T18:26:16;102209.66;;;6.50;51.42
46303;BME280;32029;51.358;5.628;2023-03-01T18:28:45;102212.91;;;6.44;51.49
46303;BME280;32029;51.358;5.628;2023-03-01T18:31:14;102208.19;;;6.34;51.60
46303;BME280;32029;51.358;5.628;2023-03-01T18:33:44;102164.00;;;6.08;51.83
46303;BME280;32029;51.358;5.628;2023-03-01T18:36:32;102200.28;;;6.20;51.83
46303;BME280;32029;51.358;5.628;2023-03-01T18:39:01;102189.13;;;6.12;52.07
46303;BME280;32029;51.358;5.628;2023-03-01T18:41:28;102194.09;;;6.07;52.37
46303;BME280;32029;51.358;5.628;2023-03-01T18:43:55;102192.75;;;6.01;52.18
46303;BME280;32029;51.358;5.628;2023-03-01T18:46:23;102196.84;;;5.96;52.41
46303;BME280;32029;51.358;5.628;2023-03-01T18:48:51;102194.47;;;5.91;52.44
46303;BME280;32029;51.358;5.628;2023-03-01T18:51:24;102188.53;;;5.86;52.40
46303;BME280;32029;51.358;5.628;2023-03-01T18:53:51;102191.72;;;5.80;52.53
46303;BME280;32029;51.358;5.628;2023-03-01T18:56:18;102192.09;;;5.75;52.42